createdAt,value
2023-05-16T00:00:33.648Z,72
2023-05-16T00:01:32.717Z,72
2023-05-16T00:02:32.898Z,73
2023-05-16T00:03:32.749Z,73
2023-05-16T00:04:32.719Z,73
2023-05-16T00:05:32.652Z,73
2023-05-16T00:06:32.686Z,73
2023-05-16T00:07:32.697Z,73
2023-05-16T00:08:32.630Z,73
2023-05-16T00:09:32.695Z,73
2023-05-16T00:10:33.903Z,73
2023-05-16T00:11:32.677Z,73
2023-05-16T00:12:32.677Z,73
2023-05-16T00:13:32.675Z,73
2023-05-16T00:14:32.662Z,73
2023-05-16T00:15:32.698Z,73
2023-05-16T00:16:32.654Z,73
2023-05-16T00:17:32.693Z,73
2023-05-16T00:18:32.722Z,73
2023-05-16T00:19:32.691Z,73
2023-05-16T00:20:32.679Z,73
2023-05-16T00:21:32.674Z,73
2023-05-16T00:22:32.742Z,73
2023-05-16T00:23:32.665Z,73
2023-05-16T00:24:32.651Z,73
2023-05-16T00:25:32.700Z,73
2023-05-16T00:26:32.688Z,73
2023-05-16T00:27:32.701Z,73
2023-05-16T00:28:32.644Z,73
2023-05-16T00:29:32.642Z,73
2023-05-16T00:30:33.540Z,73
2023-05-16T00:31:32.679Z,73
2023-05-16T00:32:32.699Z,72
2023-05-16T00:33:32.626Z,72
2023-05-16T00:34:32.779Z,72
2023-05-16T00:35:32.673Z,72
2023-05-16T00:36:32.681Z,72
2023-05-16T00:37:32.651Z,72
2023-05-16T00:38:32.646Z,72
2023-05-16T00:39:32.662Z,72
2023-05-16T00:40:32.729Z,72
2023-05-16T00:41:32.695Z,72
2023-05-16T00:42:32.676Z,72
2023-05-16T00:43:32.694Z,72
2023-05-16T00:44:32.669Z,72
2023-05-16T00:45:32.654Z,72
2023-05-16T00:46:32.724Z,72
2023-05-16T00:47:32.734Z,72
2023-05-16T00:48:32.716Z,72
2023-05-16T00:49:32.671Z,72
2023-05-16T00:50:32.656Z,72
2023-05-16T00:51:32.692Z,72
2023-05-16T00:52:32.655Z,72
2023-05-16T00:53:32.643Z,72
2023-05-16T00:54:32.711Z,72
2023-05-16T00:55:32.649Z,72
2023-05-16T00:56:32.675Z,72
2023-05-16T00:57:32.670Z,72
2023-05-16T00:58:32.651Z,72
2023-05-16T00:59:32.650Z,72
2023-05-16T01:00:33.547Z,72
2023-05-16T01:01:32.647Z,72
2023-05-16T01:02:32.698Z,72
2023-05-16T01:03:32.815Z,71
2023-05-16T01:04:32.695Z,71
2023-05-16T01:05:32.690Z,71
2023-05-16T01:06:32.635Z,71
2023-05-16T01:07:32.702Z,71
2023-05-16T01:08:32.679Z,71
2023-05-16T01:09:32.655Z,71
2023-05-16T01:10:33.360Z,70
2023-05-16T01:11:32.671Z,70
2023-05-16T01:12:32.661Z,70
2023-05-16T01:13:32.646Z,70
2023-05-16T01:14:32.727Z,70
2023-05-16T01:15:32.680Z,70
2023-05-16T01:16:32.702Z,70
2023-05-16T01:17:32.700Z,70
2023-05-16T01:18:32.709Z,70
2023-05-16T01:19:32.773Z,70
2023-05-16T01:20:32.694Z,70
2023-05-16T01:21:32.656Z,69
2023-05-16T01:22:32.662Z,69
2023-05-16T01:23:32.656Z,69
2023-05-16T01:24:32.664Z,70
2023-05-16T01:25:32.678Z,70
2023-05-16T01:26:32.717Z,70
2023-05-16T01:27:32.674Z,70
2023-05-16T01:28:32.703Z,70
2023-05-16T01:29:32.642Z,70
2023-05-16T01:30:32.647Z,70
2023-05-16T01:31:32.735Z,70
2023-05-16T01:32:32.766Z,70
2023-05-16T01:33:32.686Z,70
2023-05-16T01:34:32.626Z,70
2023-05-16T01:35:32.719Z,71
2023-05-16T01:36:32.659Z,71
2023-05-16T01:37:32.633Z,71
2023-05-16T01:38:32.684Z,71
2023-05-16T01:39:32.638Z,71
2023-05-16T01:40:32.814Z,71
2023-05-16T01:41:32.827Z,71
2023-05-16T01:42:32.832Z,71
2023-05-16T01:43:32.825Z,71
2023-05-16T01:44:32.858Z,71
2023-05-16T01:45:32.824Z,71
2023-05-16T01:46:32.801Z,71
2023-05-16T01:47:32.808Z,71
2023-05-16T01:48:32.803Z,71
2023-05-16T01:49:32.849Z,71
2023-05-16T01:50:33.847Z,71
2023-05-16T01:51:32.741Z,71
2023-05-16T01:52:32.856Z,71
2023-05-16T01:53:32.741Z,71
2023-05-16T01:54:32.783Z,71
2023-05-16T01:55:32.811Z,71
2023-05-16T01:56:32.798Z,71
2023-05-16T01:57:32.828Z,71
2023-05-16T01:58:32.753Z,71
2023-05-16T01:59:32.667Z,72
2023-05-16T02:00:33.649Z,71
2023-05-16T02:01:32.822Z,72
2023-05-16T02:02:33.000Z,72
2023-05-16T02:03:32.779Z,72
2023-05-16T02:04:32.671Z,72
2023-05-16T02:05:32.706Z,72
2023-05-16T02:06:32.730Z,72
2023-05-16T02:07:32.631Z,71
2023-05-16T02:08:32.620Z,71
2023-05-16T02:09:32.650Z,71
2023-05-16T02:10:32.619Z,71
2023-05-16T02:11:32.650Z,71
2023-05-16T02:12:32.627Z,71
2023-05-16T02:13:32.667Z,71
2023-05-16T02:14:32.651Z,71
2023-05-16T02:15:32.624Z,71
2023-05-16T02:16:32.745Z,71
2023-05-16T02:17:32.708Z,71
2023-05-16T02:18:32.670Z,70
2023-05-16T02:19:32.654Z,70
2023-05-16T02:20:33.637Z,70
2023-05-16T02:21:32.666Z,70
2023-05-16T02:22:32.664Z,70
2023-05-16T02:23:32.701Z,70
2023-05-16T02:24:32.741Z,70
2023-05-16T02:25:32.651Z,70
2023-05-16T02:26:32.648Z,70
2023-05-16T02:27:32.665Z,70
2023-05-16T02:28:32.657Z,70
2023-05-16T02:29:32.647Z,70
2023-05-16T02:30:32.643Z,70
2023-05-16T02:31:32.774Z,70
2023-05-16T02:32:32.663Z,70
2023-05-16T02:33:32.668Z,70
2023-05-16T02:34:32.627Z,70
2023-05-16T02:35:32.623Z,70
2023-05-16T02:36:32.641Z,70
2023-05-16T02:37:32.688Z,70
2023-05-16T02:38:32.667Z,70
2023-05-16T02:39:32.629Z,70
2023-05-16T02:40:33.362Z,70
2023-05-16T02:41:32.657Z,71
2023-05-16T02:42:32.653Z,71
2023-05-16T02:43:32.679Z,71
2023-05-16T02:44:32.645Z,71
2023-05-16T02:45:32.633Z,71
2023-05-16T02:46:32.702Z,71
2023-05-16T02:47:32.670Z,71
2023-05-16T02:48:32.697Z,72
2023-05-16T02:49:32.656Z,72
2023-05-16T02:50:32.656Z,72
2023-05-16T02:51:32.644Z,72
2023-05-16T02:52:32.644Z,72
2023-05-16T02:53:32.614Z,72
2023-05-16T02:54:32.627Z,72
2023-05-16T02:55:32.702Z,72
2023-05-16T02:56:32.674Z,73
2023-05-16T02:57:32.686Z,73
2023-05-16T02:58:32.671Z,73
2023-05-16T02:59:32.669Z,73
2023-05-16T03:00:33.758Z,72
2023-05-16T03:01:32.710Z,73
2023-05-16T03:02:32.809Z,72
2023-05-16T03:03:32.859Z,72
2023-05-16T03:04:32.778Z,72
2023-05-16T03:05:32.993Z,72
2023-05-16T03:06:32.673Z,72
2023-05-16T03:07:32.642Z,72
2023-05-16T03:08:32.665Z,72
2023-05-16T03:09:32.635Z,72
2023-05-16T03:10:32.678Z,72
2023-05-16T03:11:32.841Z,72
2023-05-16T03:12:32.636Z,72
2023-05-16T03:13:32.635Z,72
2023-05-16T03:14:32.746Z,72
2023-05-16T03:15:32.754Z,72
2023-05-16T03:16:32.718Z,72
2023-05-16T03:17:32.727Z,72
2023-05-16T03:18:32.809Z,72
2023-05-16T03:19:32.682Z,72
2023-05-16T03:20:32.706Z,72
2023-05-16T03:21:32.806Z,73
2023-05-16T03:22:32.695Z,73
2023-05-16T03:23:32.747Z,73
2023-05-16T03:24:32.825Z,73
2023-05-16T03:25:32.786Z,73
2023-05-16T03:26:32.770Z,73
2023-05-16T03:27:32.624Z,73
2023-05-16T03:28:32.808Z,73
2023-05-16T03:29:32.642Z,73
2023-05-16T03:30:33.442Z,73
2023-05-16T03:31:32.841Z,73
2023-05-16T03:32:32.630Z,73
2023-05-16T03:33:32.799Z,74
2023-05-16T03:34:32.646Z,74
2023-05-16T03:35:32.763Z,74
2023-05-16T03:36:32.790Z,74
2023-05-16T03:37:32.639Z,75
2023-05-16T03:38:32.700Z,75
2023-05-16T03:39:32.675Z,75
2023-05-16T03:40:34.175Z,75
2023-05-16T03:41:36.749Z,75
2023-05-16T03:42:40.665Z,75
2023-05-16T03:43:44.791Z,75
2023-05-16T03:44:48.765Z,76
2023-05-16T03:45:52.686Z,76
2023-05-16T03:46:56.635Z,77
2023-05-16T03:48:00.717Z,76
2023-05-16T03:49:04.603Z,76
2023-05-16T03:50:08.731Z,76
2023-05-16T03:51:12.774Z,76
2023-05-16T03:52:17.055Z,76
2023-05-16T03:53:20.604Z,77
2023-05-16T03:54:24.640Z,76
2023-05-16T03:55:28.782Z,77
2023-05-16T03:56:32.648Z,77
2023-05-16T03:57:32.685Z,77
2023-05-16T03:58:32.663Z,77
2023-05-16T03:59:32.813Z,77
2023-05-16T04:00:32.602Z,77
2023-05-16T04:01:32.693Z,78
2023-05-16T04:02:32.738Z,77
2023-05-16T04:03:32.658Z,77
2023-05-16T04:04:32.591Z,77
2023-05-16T04:05:32.708Z,77
2023-05-16T04:06:32.637Z,76
2023-05-16T04:07:32.666Z,77
2023-05-16T04:08:32.606Z,77
2023-05-16T04:09:32.622Z,77
2023-05-16T04:10:33.669Z,77
2023-05-16T04:11:32.620Z,77
2023-05-16T04:12:32.605Z,77
2023-05-16T04:13:32.813Z,77
2023-05-16T04:14:32.640Z,76
2023-05-16T04:15:32.656Z,76
2023-05-16T04:16:32.667Z,77
2023-05-16T04:17:32.743Z,77
2023-05-16T04:18:32.669Z,77
2023-05-16T04:19:32.670Z,76
2023-05-16T04:20:33.052Z,77
2023-05-16T04:21:32.630Z,77
2023-05-16T04:22:32.700Z,76
2023-05-16T04:23:32.695Z,77
2023-05-16T04:24:32.575Z,76
2023-05-16T04:25:32.639Z,76
2023-05-16T04:26:32.652Z,77
2023-05-16T04:27:32.693Z,76
2023-05-16T04:28:32.541Z,76
2023-05-16T04:29:32.642Z,77
2023-05-16T04:30:32.594Z,77
2023-05-16T04:31:32.726Z,78
2023-05-16T04:32:32.647Z,78
2023-05-16T04:33:32.641Z,78
2023-05-16T04:34:32.630Z,78
2023-05-16T04:35:32.657Z,78
2023-05-16T04:36:32.543Z,79
2023-05-16T04:37:32.650Z,79
2023-05-16T04:38:32.646Z,80
2023-05-16T04:39:32.684Z,80
2023-05-16T04:40:32.549Z,80
2023-05-16T04:41:32.651Z,81
2023-05-16T04:42:32.691Z,82
2023-05-16T04:43:32.637Z,82
2023-05-16T04:44:32.549Z,82
2023-05-16T04:45:32.615Z,83
2023-05-16T04:46:32.667Z,83
2023-05-16T04:47:32.855Z,84
2023-05-16T04:48:32.526Z,84
2023-05-16T04:49:32.608Z,84
2023-05-16T04:50:33.564Z,84
2023-05-16T04:51:32.674Z,84
2023-05-16T04:52:32.541Z,84
2023-05-16T04:53:32.652Z,84
2023-05-16T04:54:32.671Z,85
2023-05-16T04:55:32.652Z,85
2023-05-16T04:56:32.540Z,85
2023-05-16T04:57:32.655Z,86
2023-05-16T04:58:32.618Z,86
2023-05-16T04:59:32.670Z,85
2023-05-16T05:00:33.324Z,85
2023-05-16T05:01:32.673Z,86
2023-05-16T05:02:32.714Z,86
2023-05-16T05:03:32.645Z,86
2023-05-16T05:04:32.500Z,87
2023-05-16T05:05:33.056Z,87
2023-05-16T05:06:32.692Z,87
2023-05-16T05:07:32.662Z,88
2023-05-16T05:08:32.470Z,88
2023-05-16T05:09:32.633Z,88
2023-05-16T05:10:32.609Z,88
2023-05-16T05:11:32.634Z,88
2023-05-16T05:12:33.452Z,88
2023-05-16T05:13:36.505Z,89
2023-05-16T05:14:40.511Z,89
2023-05-16T05:15:44.559Z,89
2023-05-16T05:16:48.534Z,89
2023-05-16T05:17:52.621Z,90
2023-05-16T05:18:56.665Z,90
2023-05-16T05:20:02.847Z,90
2023-05-16T05:21:04.471Z,90
2023-05-16T05:22:08.491Z,90
2023-05-16T05:23:12.486Z,90
2023-05-16T05:24:16.489Z,90
2023-05-16T05:25:20.477Z,91
2023-05-16T05:26:24.491Z,91
2023-05-16T05:27:28.505Z,91
2023-05-16T05:28:32.529Z,91
2023-05-16T05:29:32.625Z,91
2023-05-16T05:30:32.792Z,91
2023-05-16T05:31:32.652Z,91
2023-05-16T05:32:32.517Z,91
2023-05-16T05:33:32.612Z,91
2023-05-16T05:34:32.644Z,91
2023-05-16T05:35:32.664Z,91
2023-05-16T05:36:32.462Z,91
2023-05-16T05:37:32.652Z,91
2023-05-16T05:38:32.700Z,91
2023-05-16T05:39:32.754Z,91
2023-05-16T05:40:32.412Z,91
2023-05-16T05:41:32.793Z,91
2023-05-16T05:42:32.639Z,91
2023-05-16T05:43:32.651Z,91
2023-05-16T05:44:32.632Z,91
2023-05-16T05:45:32.701Z,91
2023-05-16T05:46:33.745Z,91
2023-05-16T05:47:44.513Z,91
2023-05-16T05:48:48.412Z,91
2023-05-16T05:49:52.518Z,91
2023-05-16T05:50:56.495Z,91
2023-05-16T05:52:00.506Z,91
2023-05-16T05:53:04.475Z,91
2023-05-16T05:54:08.461Z,92
2023-05-16T05:55:12.521Z,92
2023-05-16T05:56:16.494Z,92
2023-05-16T05:57:20.423Z,92
2023-05-16T05:58:24.458Z,92
2023-05-16T05:59:28.421Z,92
2023-05-16T06:00:32.417Z,92
2023-05-16T06:01:32.643Z,92
2023-05-16T06:02:32.692Z,92
2023-05-16T06:03:32.727Z,92
2023-05-16T06:04:32.461Z,92
2023-05-16T06:05:32.659Z,92
2023-05-16T06:06:32.679Z,92
2023-05-16T06:07:32.657Z,92
2023-05-16T06:08:32.441Z,92
2023-05-16T06:09:32.609Z,92
2023-05-16T06:10:33.967Z,92
2023-05-16T06:11:33.557Z,92
2023-05-16T06:12:48.451Z,92
2023-05-16T06:13:52.431Z,92
2023-05-16T06:14:56.366Z,92
2023-05-16T06:16:00.504Z,93
2023-05-16T06:17:04.421Z,93
2023-05-16T06:18:08.527Z,93
2023-05-16T06:19:12.533Z,93
2023-05-16T06:20:16.465Z,93
2023-05-16T06:21:20.384Z,93
2023-05-16T06:22:24.404Z,93
2023-05-16T06:23:28.428Z,93
2023-05-16T06:24:32.436Z,93
2023-05-16T06:25:32.633Z,93
2023-05-16T06:26:32.625Z,93
2023-05-16T06:27:32.632Z,93
2023-05-16T06:28:32.450Z,93
2023-05-16T06:29:32.631Z,93
2023-05-16T06:30:32.664Z,93
2023-05-16T06:31:32.650Z,93
2023-05-16T06:32:32.427Z,93
2023-05-16T06:33:32.752Z,93
2023-05-16T06:34:32.678Z,93
2023-05-16T06:35:32.700Z,93
2023-05-16T06:36:32.395Z,93
2023-05-16T06:37:32.685Z,93
2023-05-16T06:38:32.661Z,93
2023-05-16T06:39:32.611Z,93
2023-05-16T06:40:32.369Z,93
2023-05-16T06:41:33.419Z,93
2023-05-16T06:42:32.617Z,93
2023-05-16T06:43:32.624Z,93
2023-05-16T06:44:32.336Z,93
2023-05-16T06:45:32.635Z,93
2023-05-16T06:46:32.660Z,93
2023-05-16T06:47:32.699Z,93
2023-05-16T06:48:32.403Z,93
2023-05-16T06:49:32.617Z,93
2023-05-16T06:50:32.637Z,93
2023-05-16T06:51:32.658Z,94
2023-05-16T06:52:32.384Z,94
2023-05-16T06:53:32.607Z,94
2023-05-16T06:54:32.689Z,94
2023-05-16T06:55:32.653Z,94
2023-05-16T06:56:32.396Z,94
2023-05-16T06:57:32.693Z,94
2023-05-16T06:58:32.616Z,94
2023-05-16T06:59:32.621Z,94
2023-05-16T07:00:32.351Z,94
2023-05-16T07:01:32.774Z,94
2023-05-16T07:02:32.773Z,94
2023-05-16T07:03:32.733Z,94
2023-05-16T07:04:32.561Z,94
2023-05-16T07:05:32.626Z,94
2023-05-16T07:06:32.647Z,94
2023-05-16T07:07:32.716Z,94
2023-05-16T07:08:32.340Z,94
2023-05-16T07:09:32.651Z,94
2023-05-16T07:10:33.992Z,94
2023-05-16T07:11:32.636Z,94
2023-05-16T07:12:32.362Z,94
2023-05-16T07:13:35.735Z,95
2023-05-16T07:14:32.614Z,95
2023-05-16T07:15:32.635Z,95
2023-05-16T07:16:32.421Z,95
2023-05-16T07:17:32.729Z,95
2023-05-16T07:18:32.631Z,95
2023-05-16T07:19:33.618Z,95
2023-05-16T07:20:32.482Z,95
2023-05-16T07:21:32.689Z,95
2023-05-16T07:22:32.628Z,95
2023-05-16T07:23:32.611Z,95
2023-05-16T07:24:32.334Z,95
2023-05-16T07:25:32.653Z,95
2023-05-16T07:26:32.630Z,95
2023-05-16T07:27:32.614Z,95
2023-05-16T07:28:32.381Z,95
2023-05-16T07:29:32.651Z,95
2023-05-16T07:30:32.762Z,95
2023-05-16T07:31:32.672Z,95
2023-05-16T07:32:32.364Z,95
2023-05-16T07:33:32.608Z,95
2023-05-16T07:34:32.605Z,95
2023-05-16T07:35:32.660Z,95
2023-05-16T07:36:32.362Z,95
2023-05-16T07:37:32.606Z,95
2023-05-16T07:38:32.633Z,95
2023-05-16T07:39:32.643Z,95
2023-05-16T07:40:32.306Z,95
2023-05-16T07:41:32.642Z,95
2023-05-16T07:42:32.640Z,95
2023-05-16T07:43:32.611Z,95
2023-05-16T07:44:32.329Z,95
2023-05-16T07:45:32.654Z,95
2023-05-16T07:46:32.660Z,95
2023-05-16T07:47:32.672Z,95
2023-05-16T07:48:32.273Z,95
2023-05-16T07:49:32.625Z,95
2023-05-16T07:50:32.608Z,95
2023-05-16T07:51:32.626Z,96
2023-05-16T07:52:32.299Z,95
2023-05-16T07:53:32.586Z,95
2023-05-16T07:54:32.618Z,95
2023-05-16T07:55:32.650Z,96
2023-05-16T07:56:32.284Z,95
2023-05-16T07:57:32.647Z,95
2023-05-16T07:58:32.688Z,95
2023-05-16T07:59:32.605Z,95
2023-05-16T08:00:32.315Z,95
2023-05-16T08:01:32.598Z,95
2023-05-16T08:02:32.702Z,95
2023-05-16T08:03:32.861Z,95
2023-05-16T08:04:32.241Z,95
2023-05-16T08:05:32.627Z,95
2023-05-16T08:06:32.630Z,95
2023-05-16T08:07:32.608Z,95
2023-05-16T08:08:32.263Z,95
2023-05-16T08:09:32.634Z,95
2023-05-16T08:10:32.715Z,95
2023-05-16T08:11:32.679Z,95
2023-05-16T08:12:32.272Z,95
2023-05-16T08:13:32.666Z,95
2023-05-16T08:14:32.658Z,95
2023-05-16T08:15:32.619Z,95
2023-05-16T08:16:32.376Z,95
2023-05-16T08:17:32.647Z,95
2023-05-16T08:18:32.695Z,95
2023-05-16T08:19:32.622Z,95
2023-05-16T08:20:32.254Z,95
2023-05-16T08:21:32.592Z,95
2023-05-16T08:22:32.624Z,95
2023-05-16T08:23:32.613Z,95
2023-05-16T08:24:32.235Z,95
2023-05-16T08:25:32.695Z,95
2023-05-16T08:26:32.614Z,95
2023-05-16T08:27:32.634Z,95
2023-05-16T08:28:32.231Z,94
2023-05-16T08:29:32.633Z,94
2023-05-16T08:30:33.056Z,94
2023-05-16T08:31:32.694Z,94
2023-05-16T08:32:32.249Z,94
2023-05-16T08:33:32.629Z,94
2023-05-16T08:34:32.692Z,94
2023-05-16T08:35:32.664Z,94
2023-05-16T08:36:32.284Z,94
2023-05-16T08:37:32.595Z,94
2023-05-16T08:38:32.640Z,94
2023-05-16T08:39:32.607Z,94
2023-05-16T08:40:32.232Z,94
2023-05-16T08:41:32.609Z,94
2023-05-16T08:42:32.608Z,94
2023-05-16T08:43:32.605Z,94
2023-05-16T08:44:32.231Z,94
2023-05-16T08:45:32.669Z,94
2023-05-16T08:46:32.647Z,94
2023-05-16T08:47:32.658Z,94
2023-05-16T08:48:32.216Z,94
2023-05-16T08:49:32.603Z,94
2023-05-16T08:50:32.605Z,94
2023-05-16T08:51:32.652Z,94
2023-05-16T08:52:32.237Z,94
2023-05-16T08:53:32.623Z,94
2023-05-16T08:54:32.656Z,94
2023-05-16T08:55:32.649Z,94
2023-05-16T08:56:32.225Z,94
2023-05-16T08:57:32.642Z,94
2023-05-16T08:58:32.611Z,94
2023-05-16T08:59:32.620Z,94
2023-05-16T09:00:32.179Z,94
2023-05-16T09:01:32.712Z,94
2023-05-16T09:02:32.680Z,94
2023-05-16T09:03:32.613Z,95
2023-05-16T09:04:32.322Z,95
2023-05-16T09:05:32.719Z,94
2023-05-16T09:06:32.621Z,95
2023-05-16T09:07:32.595Z,95
2023-05-16T09:08:32.135Z,95
2023-05-16T09:09:32.569Z,95
2023-05-16T09:10:33.068Z,94
2023-05-16T09:11:33.333Z,95
2023-05-16T09:12:32.184Z,95
2023-05-16T09:13:32.598Z,95
2023-05-16T09:14:32.617Z,95
2023-05-16T09:15:32.619Z,95
2023-05-16T09:16:32.307Z,95
2023-05-16T09:17:40.028Z,94
2023-05-16T09:18:32.798Z,94
2023-05-16T09:19:32.712Z,94
2023-05-16T09:20:33.168Z,94
2023-05-16T09:21:32.637Z,94
2023-05-16T09:22:32.679Z,94
2023-05-16T09:23:33.420Z,94
2023-05-16T09:24:32.176Z,94
2023-05-16T09:25:32.828Z,94
2023-05-16T09:26:32.599Z,94
2023-05-16T09:27:32.582Z,94
2023-05-16T09:28:32.181Z,94
2023-05-16T09:29:32.580Z,94
2023-05-16T09:30:32.621Z,94
2023-05-16T09:31:32.692Z,94
2023-05-16T09:32:32.175Z,94
2023-05-16T09:33:32.676Z,94
2023-05-16T09:34:32.578Z,94
2023-05-16T09:35:44.303Z,94
2023-05-16T09:36:32.137Z,94
2023-05-16T09:37:32.622Z,94
2023-05-16T09:38:32.629Z,94
2023-05-16T09:39:32.624Z,94
2023-05-16T09:40:32.116Z,94
2023-05-16T09:41:32.618Z,94
2023-05-16T09:42:32.653Z,94
2023-05-16T09:43:33.580Z,94
2023-05-16T09:44:32.185Z,95
2023-05-16T09:45:32.640Z,95
2023-05-16T09:46:32.697Z,95
2023-05-16T09:47:32.714Z,95
2023-05-16T09:48:32.155Z,95
2023-05-16T09:49:32.607Z,95
2023-05-16T09:50:33.941Z,95
2023-05-16T09:51:32.683Z,95
2023-05-16T09:52:32.103Z,95
2023-05-16T09:53:32.594Z,95
2023-05-16T09:54:32.724Z,95
2023-05-16T09:55:32.606Z,95
2023-05-16T09:56:32.125Z,95
2023-05-16T09:57:33.056Z,95
2023-05-16T09:58:32.620Z,95
2023-05-16T09:59:32.590Z,95
2023-05-16T10:00:32.160Z,95
2023-05-16T10:01:32.811Z,95
2023-05-16T10:02:32.707Z,95
2023-05-16T10:03:32.710Z,96
2023-05-16T10:04:32.125Z,95
2023-05-16T10:05:32.600Z,95
2023-05-16T10:06:32.623Z,96
2023-05-16T10:07:32.597Z,96
2023-05-16T10:08:32.110Z,95
2023-05-16T10:09:32.595Z,96
2023-05-16T10:10:33.645Z,96
2023-05-16T10:11:32.618Z,96
2023-05-16T10:12:32.302Z,96
2023-05-16T10:13:32.627Z,96
2023-05-16T10:14:32.592Z,96
2023-05-16T10:15:32.613Z,96
2023-05-16T10:16:32.135Z,96
2023-05-16T10:17:32.772Z,96
2023-05-16T10:18:32.673Z,96
2023-05-16T10:19:32.660Z,95
2023-05-16T10:20:32.057Z,96
2023-05-16T10:21:32.570Z,95
2023-05-16T10:22:32.584Z,95
2023-05-16T10:23:32.586Z,95
2023-05-16T10:24:32.021Z,95
2023-05-16T10:25:32.815Z,95
2023-05-16T10:26:32.625Z,95
2023-05-16T10:27:32.607Z,95
2023-05-16T10:28:32.019Z,95
2023-05-16T10:29:39.991Z,95
2023-05-16T10:30:32.766Z,95
2023-05-16T10:31:32.618Z,95
2023-05-16T10:32:32.087Z,95
2023-05-16T10:33:32.611Z,95
2023-05-16T10:34:32.580Z,95
2023-05-16T10:35:32.587Z,94
2023-05-16T10:36:32.055Z,94
2023-05-16T10:37:32.570Z,94
2023-05-16T10:38:32.671Z,94
2023-05-16T10:39:32.597Z,95
2023-05-16T10:40:32.047Z,94
2023-05-16T10:41:32.587Z,94
2023-05-16T10:42:32.573Z,94
2023-05-16T10:43:32.607Z,94
2023-05-16T10:44:32.000Z,94
2023-05-16T10:45:32.955Z,94
2023-05-16T10:46:32.815Z,94
2023-05-16T10:47:32.740Z,94
2023-05-16T10:48:32.064Z,94
2023-05-16T10:49:32.591Z,94
2023-05-16T10:50:32.596Z,94
2023-05-16T10:51:32.638Z,94
2023-05-16T10:52:32.031Z,94
2023-05-16T10:53:32.646Z,94
2023-05-16T10:54:34.033Z,94
2023-05-16T10:55:32.603Z,94
2023-05-16T10:56:32.048Z,94
2023-05-16T10:57:32.597Z,94
2023-05-16T10:58:32.590Z,94
2023-05-16T10:59:32.576Z,94
2023-05-16T11:00:31.998Z,94
2023-05-16T11:01:32.660Z,94
2023-05-16T11:02:32.762Z,94
2023-05-16T11:03:32.681Z,94
2023-05-16T11:04:32.023Z,94
2023-05-16T11:05:32.599Z,95
2023-05-16T11:06:32.563Z,95
2023-05-16T11:07:32.579Z,94
2023-05-16T11:08:31.991Z,94
2023-05-16T11:09:32.571Z,94
2023-05-16T11:10:32.598Z,94
2023-05-16T11:11:32.616Z,94
2023-05-16T11:12:32.040Z,94
2023-05-16T11:13:32.586Z,95
2023-05-16T11:14:33.089Z,94
2023-05-16T11:15:32.583Z,94
2023-05-16T11:16:32.033Z,94
2023-05-16T11:17:32.659Z,94
2023-05-16T11:18:32.740Z,94
2023-05-16T11:19:32.625Z,94
2023-05-16T11:20:31.963Z,94
2023-05-16T11:21:32.619Z,94
2023-05-16T11:22:32.572Z,94
2023-05-16T11:23:32.586Z,94
2023-05-16T11:24:31.989Z,94
2023-05-16T11:25:32.616Z,94
2023-05-16T11:26:32.639Z,94
2023-05-16T11:27:32.654Z,94
2023-05-16T11:28:31.984Z,94
2023-05-16T11:29:32.626Z,94
2023-05-16T11:30:32.621Z,94
2023-05-16T11:31:32.662Z,94
2023-05-16T11:32:32.645Z,94
2023-05-16T11:33:32.599Z,94
2023-05-16T11:34:32.581Z,94
2023-05-16T11:35:32.566Z,94
2023-05-16T11:36:31.981Z,94
2023-05-16T11:37:32.629Z,94
2023-05-16T11:38:32.611Z,94
2023-05-16T11:39:32.679Z,94
2023-05-16T11:40:31.934Z,94
2023-05-16T11:41:32.584Z,94
2023-05-16T11:42:32.605Z,94
2023-05-16T11:43:32.640Z,94
2023-05-16T11:44:31.949Z,94
2023-05-16T11:45:32.580Z,94
2023-05-16T11:46:32.615Z,94
2023-05-16T11:47:32.668Z,94
2023-05-16T11:48:36.259Z,94
2023-05-16T11:49:32.594Z,94
2023-05-16T11:50:33.831Z,94
2023-05-16T11:51:32.590Z,94
2023-05-16T11:52:31.926Z,94
2023-05-16T11:53:32.635Z,94
2023-05-16T11:54:32.574Z,94
2023-05-16T11:55:41.730Z,93
2023-05-16T11:56:32.583Z,93
2023-05-16T11:57:33.330Z,93
2023-05-16T11:58:32.592Z,93
2023-05-16T11:59:32.571Z,93
2023-05-16T12:00:32.559Z,93
2023-05-16T12:01:32.643Z,93
2023-05-16T12:02:32.766Z,93
2023-05-16T12:03:32.726Z,93
2023-05-16T12:04:32.787Z,93
2023-05-16T12:05:33.191Z,93
2023-05-16T12:06:32.595Z,93
2023-05-16T12:07:32.658Z,93
2023-05-16T12:08:32.585Z,92
2023-05-16T12:09:32.571Z,92
2023-05-16T12:10:33.821Z,92
2023-05-16T12:11:32.673Z,92
2023-05-16T12:12:32.608Z,92
2023-05-16T12:13:32.567Z,92
2023-05-16T12:14:32.588Z,92
2023-05-16T12:15:32.621Z,92
2023-05-16T12:16:32.593Z,92
2023-05-16T12:17:32.718Z,92
2023-05-16T12:18:32.619Z,92
2023-05-16T12:19:32.735Z,92
2023-05-16T12:20:32.558Z,91
2023-05-16T12:21:32.571Z,91
2023-05-16T12:22:32.667Z,91
2023-05-16T12:23:32.606Z,92
2023-05-16T12:24:32.652Z,92
2023-05-16T12:25:32.708Z,92
2023-05-16T12:26:32.579Z,92
2023-05-16T12:27:32.593Z,92
2023-05-16T12:28:32.616Z,92
2023-05-16T12:29:32.621Z,92
2023-05-16T12:30:32.966Z,92
2023-05-16T12:31:32.932Z,92
2023-05-16T12:32:32.748Z,92
2023-05-16T12:33:32.798Z,92
2023-05-16T12:34:32.582Z,92
2023-05-16T12:35:32.589Z,92
2023-05-16T12:36:32.583Z,92
2023-05-16T12:37:32.571Z,92
2023-05-16T12:38:32.698Z,92
2023-05-16T12:39:34.919Z,92
2023-05-16T12:40:32.773Z,92
2023-05-16T12:41:32.574Z,92
2023-05-16T12:42:32.581Z,92
2023-05-16T12:43:32.598Z,91
2023-05-16T12:44:32.621Z,91
2023-05-16T12:45:35.222Z,92
2023-05-16T12:46:32.652Z,92
2023-05-16T12:47:32.738Z,92
2023-05-16T12:48:32.611Z,91
2023-05-16T12:49:32.612Z,91
2023-05-16T12:50:33.747Z,91
2023-05-16T12:51:34.723Z,91
2023-05-16T12:52:32.561Z,91
2023-05-16T12:53:32.652Z,91
2023-05-16T12:54:32.697Z,91
2023-05-16T12:55:32.568Z,90
2023-05-16T12:56:32.688Z,90
2023-05-16T12:57:34.379Z,90
2023-05-16T12:58:32.664Z,90
2023-05-16T12:59:32.583Z,89
2023-05-16T13:00:33.543Z,89
2023-05-16T13:01:32.649Z,89
2023-05-16T13:02:34.290Z,89
2023-05-16T13:03:35.280Z,89
2023-05-16T13:04:32.620Z,89
2023-05-16T13:05:32.670Z,89
2023-05-16T13:06:48.852Z,89
2023-05-16T13:07:32.616Z,89
2023-05-16T13:08:32.594Z,89
2023-05-16T13:09:33.202Z,89
2023-05-16T13:10:32.652Z,89
2023-05-16T13:11:32.607Z,89
2023-05-16T13:12:32.558Z,89
2023-05-16T13:13:36.310Z,89
2023-05-16T13:14:32.708Z,89
2023-05-16T13:15:32.734Z,89
2023-05-16T13:16:32.610Z,88
2023-05-16T13:17:32.623Z,88
2023-05-16T13:18:32.637Z,88
2023-05-16T13:19:32.583Z,88
2023-05-16T13:20:32.619Z,88
2023-05-16T13:21:32.583Z,88
2023-05-16T13:22:32.678Z,88
2023-05-16T13:23:32.648Z,87
2023-05-16T13:24:32.562Z,87
2023-05-16T13:25:32.645Z,87
2023-05-16T13:26:32.629Z,87
2023-05-16T13:27:32.594Z,87
2023-05-16T13:28:32.571Z,87
2023-05-16T13:29:32.573Z,87
2023-05-16T13:30:33.650Z,87
2023-05-16T13:31:32.613Z,86
2023-05-16T13:32:32.726Z,86
2023-05-16T13:33:32.572Z,86
2023-05-16T13:34:32.650Z,86
2023-05-16T13:35:32.640Z,86
2023-05-16T13:36:41.813Z,86
2023-05-16T13:37:32.587Z,86
2023-05-16T13:38:32.707Z,86
2023-05-16T13:39:32.648Z,87
2023-05-16T13:40:33.515Z,87
2023-05-16T13:41:32.540Z,87
2023-05-16T13:42:32.572Z,87
2023-05-16T13:43:32.576Z,86
2023-05-16T13:44:32.761Z,86
2023-05-16T13:45:32.620Z,86
2023-05-16T13:46:32.600Z,86
2023-05-16T13:47:32.619Z,86
2023-05-16T13:48:32.576Z,87
2023-05-16T13:49:32.592Z,86
2023-05-16T13:50:33.836Z,86
2023-05-16T13:51:32.579Z,86
2023-05-16T13:52:32.632Z,86
2023-05-16T13:53:32.580Z,86
2023-05-16T13:54:32.668Z,86
2023-05-16T13:55:32.593Z,87
2023-05-16T13:56:32.600Z,87
2023-05-16T13:57:32.544Z,86
2023-05-16T13:58:32.655Z,86
2023-05-16T13:59:59.161Z,85
2023-05-16T14:00:44.076Z,85
2023-05-16T14:01:32.732Z,86
2023-05-16T14:02:32.601Z,86
2023-05-16T14:03:32.752Z,86
2023-05-16T14:04:32.646Z,86
2023-05-16T14:05:32.559Z,87
2023-05-16T14:06:32.611Z,87
2023-05-16T14:07:32.565Z,87
2023-05-16T14:08:32.565Z,87
2023-05-16T14:09:32.604Z,87
2023-05-16T14:10:32.745Z,87
2023-05-16T14:11:32.596Z,86
2023-05-16T14:12:32.609Z,87
2023-05-16T14:13:32.540Z,86
2023-05-16T14:14:32.602Z,87
2023-05-16T14:15:32.623Z,87
2023-05-16T14:16:32.746Z,87
2023-05-16T14:17:32.612Z,87
2023-05-16T14:18:32.711Z,86
2023-05-16T14:19:32.691Z,86